createdAt,value
2019-03-05T00:01:06.999Z,76.46
2019-03-05T00:03:35.283Z,76.33
2019-03-05T00:06:03.580Z,77.22
2019-03-05T00:08:31.792Z,77.20
2019-03-05T00:10:59.342Z,77.56
2019-03-05T00:13:27.202Z,78.28
2019-03-05T00:15:55.966Z,78.93
2019-03-05T00:18:24.357Z,78.40
2019-03-05T00:20:52.751Z,78.89
2019-03-05T00:23:59.046Z,78.88
2019-03-05T00:26:46.722Z,80.00
2019-03-05T00:29:53.571Z,79.27
2019-03-05T00:32:22.101Z,80.34
2019-03-05T00:35:28.745Z,80.80
2019-03-05T00:38:21.483Z,81.39
2019-03-05T00:44:32.007Z,82.29
2019-03-05T00:47:26.726Z,82.42
2019-03-05T00:50:33.209Z,82.37
2019-03-05T00:53:39.521Z,82.19
2019-03-05T00:56:29.441Z,82.64
2019-03-05T00:59:36.044Z,80.86
2019-03-05T01:02:42.737Z,79.90
2019-03-05T01:08:10.591Z,79.85
2019-03-05T01:10:39.152Z,80.10
2019-03-05T01:13:07.393Z,79.17
2019-03-05T01:15:35.711Z,78.64
2019-03-05T01:18:03.762Z,79.63
2019-03-05T01:20:31.998Z,80.16
2019-03-05T01:23:00.623Z,81.45
2019-03-05T01:26:10.124Z,82.24
2019-03-05T01:28:50.781Z,82.77
2019-03-05T01:31:38.202Z,84.07
2019-03-05T01:34:11.939Z,83.11
2019-03-05T01:36:43.156Z,83.41
2019-03-05T01:39:30.915Z,82.92
2019-03-05T01:41:59.403Z,83.16
2019-03-05T01:44:27.700Z,83.72
2019-03-05T01:46:56.218Z,83.44
2019-03-05T01:49:24.083Z,82.96
2019-03-05T01:51:52.599Z,82.01
2019-03-05T01:54:20.124Z,81.54
2019-03-05T01:56:48.418Z,81.85
2019-03-05T01:59:57.033Z,82.35
2019-03-05T02:02:25.516Z,82.60
2019-03-05T02:04:53.777Z,81.33
2019-03-05T02:07:21.658Z,81.62
2019-03-05T02:09:50.347Z,82.07
2019-03-05T02:12:19.197Z,82.24
2019-03-05T02:14:47.858Z,82.03
2019-03-05T02:17:16.632Z,82.14
2019-03-05T02:19:46.584Z,81.90
2019-03-05T02:22:53.204Z,81.81
2019-03-05T02:26:00.089Z,81.77
2019-03-05T02:28:50.124Z,81.11
2019-03-05T02:31:56.813Z,80.90
2019-03-05T02:35:03.477Z,80.55
2019-03-05T02:38:09.863Z,80.82
2019-03-05T02:41:16.232Z,80.16
2019-03-05T02:44:22.587Z,80.89
2019-03-05T02:47:26.406Z,80.66
2019-03-05T02:50:05.770Z,80.38
2019-03-05T02:53:05.237Z,80.42
2019-03-05T02:56:11.518Z,79.35
2019-03-05T02:58:38.324Z,78.65
2019-03-05T03:01:25.744Z,78.63
2019-03-05T03:03:57.715Z,79.04
2019-03-05T03:06:27.918Z,79.13
2019-03-05T03:09:50.026Z,80.61
2019-03-05T03:15:51.057Z,82.66
2019-03-05T03:21:20.768Z,83.55
2019-03-05T03:23:48.706Z,83.87
2019-03-05T03:26:16.858Z,84.71
2019-03-05T03:28:45.146Z,85.65
2019-03-05T03:31:13.721Z,87.06
2019-03-05T03:33:42.318Z,86.80
2019-03-05T03:36:10.944Z,87.73
2019-03-05T03:38:39.466Z,87.30
2019-03-05T03:41:07.733Z,88.00
2019-03-05T03:43:36.382Z,87.98
2019-03-05T03:46:04.349Z,88.07
2019-03-05T03:48:32.630Z,88.34
2019-03-05T03:51:01.218Z,88.56
2019-03-05T03:53:29.567Z,88.44
2019-03-05T03:55:57.075Z,89.29
2019-03-05T03:58:25.347Z,89.64
2019-03-05T04:00:53.527Z,88.62
2019-03-05T04:03:21.809Z,88.47
2019-03-05T04:17:33.734Z,86.76
2019-03-05T04:20:00.945Z,86.36
2019-03-05T04:22:28.719Z,86.45
2019-03-05T04:24:57.009Z,85.16
2019-03-05T04:27:24.933Z,85.32
2019-03-05T04:29:53.199Z,85.96
2019-03-05T04:32:23.823Z,86.23
2019-03-05T04:34:57.967Z,85.57
2019-03-05T04:37:26.548Z,85.62
2019-03-05T04:39:55.128Z,85.45
2019-03-05T04:42:23.719Z,85.25
2019-03-05T04:45:11.448Z,84.21
2019-03-05T04:47:39.123Z,83.20
2019-03-05T04:50:26.862Z,83.65
2019-03-05T04:56:16.098Z,83.04
2019-03-05T04:58:44.588Z,82.71
2019-03-05T05:01:12.546Z,83.11
2019-03-05T05:03:41.271Z,83.01
2019-03-05T05:06:10.008Z,83.39
2019-03-05T05:08:38.115Z,83.20
2019-03-05T05:11:06.650Z,83.26
2019-03-05T05:13:34.529Z,82.67
2019-03-05T05:16:03.174Z,82.96
2019-03-05T05:18:31.889Z,82.80
2019-03-05T05:21:00.409Z,83.00
2019-03-05T05:23:28.271Z,83.06
2019-03-05T05:25:56.537Z,83.45
2019-03-05T05:28:25.108Z,82.97
2019-03-05T05:30:53.394Z,83.27
2019-03-05T05:33:21.358Z,83.62
2019-03-05T05:35:50.930Z,83.34
2019-03-05T05:38:19.128Z,83.58
2019-03-05T05:40:47.456Z,83.33
2019-03-05T05:43:17.931Z,83.72
2019-03-05T05:46:05.302Z,84.29
2019-03-05T05:48:33.569Z,83.28
2019-03-05T05:51:01.548Z,82.75
2019-03-05T05:53:29.591Z,82.58
2019-03-05T05:55:57.450Z,81.86
2019-03-05T05:58:25.773Z,81.20
2019-03-05T06:03:45.159Z,80.72
2019-03-05T06:06:13.125Z,81.24
2019-03-05T06:08:41.013Z,80.23
2019-03-05T06:11:09.461Z,80.45
2019-03-05T06:13:38.094Z,80.18
2019-03-05T06:16:06.588Z,79.88
2019-03-05T06:18:34.608Z,80.59
2019-03-05T06:21:02.888Z,81.82
2019-03-05T06:23:30.976Z,82.09
2019-03-05T06:25:58.781Z,82.50
2019-03-05T06:28:27.469Z,82.62
2019-03-05T06:30:55.801Z,82.65
2019-03-05T06:33:24.025Z,83.22
2019-03-05T06:35:52.310Z,82.73
2019-03-05T06:38:20.527Z,82.98
2019-03-05T06:40:49.284Z,82.86
2019-03-05T06:43:17.828Z,83.01
2019-03-05T06:45:46.582Z,83.11
2019-03-05T06:48:14.840Z,82.04
2019-03-05T06:50:43.049Z,81.49
2019-03-05T06:53:11.820Z,81.34
2019-03-05T06:55:40.428Z,81.69
2019-03-05T06:58:11.704Z,80.43
2019-03-05T07:00:45.868Z,79.29
2019-03-05T07:06:33.415Z,78.55
2019-03-05T07:09:44.292Z,76.67
2019-03-05T07:12:50.959Z,75.98
2019-03-05T07:15:57.652Z,75.73
2019-03-05T07:18:38.518Z,73.76
2019-03-05T07:21:45.186Z,74.97
2019-03-05T07:24:51.718Z,75.04
2019-03-05T07:27:40.415Z,75.61
2019-03-05T07:30:27.075Z,75.81
2019-03-05T07:32:58.353Z,74.13
2019-03-05T07:35:28.774Z,74.67
2019-03-05T07:37:57.064Z,75.11
2019-03-05T07:40:25.619Z,75.33
2019-03-05T07:42:53.514Z,75.45
2019-03-05T07:45:22.112Z,76.01
2019-03-05T07:47:50.347Z,75.76
2019-03-05T07:50:18.692Z,76.24
2019-03-05T07:52:46.865Z,76.16
2019-03-05T07:55:16.369Z,76.08
2019-03-05T07:57:44.713Z,75.80
2019-03-05T08:00:22.334Z,76.80
2019-03-05T08:02:50.619Z,76.71
2019-03-05T08:05:18.901Z,76.75
2019-03-05T08:07:47.303Z,76.28
2019-03-05T08:10:34.601Z,76.68
2019-03-05T08:13:27.759Z,76.63
2019-03-05T08:19:21.355Z,76.18
2019-03-05T08:22:30.052Z,75.79
2019-03-05T08:24:57.692Z,75.02
2019-03-05T08:27:25.869Z,73.90
2019-03-05T08:29:54.254Z,73.93
2019-03-05T08:32:22.149Z,72.91
2019-03-05T08:34:50.738Z,73.67
2019-03-05T08:37:19.125Z,73.89
2019-03-05T08:39:46.986Z,72.04
2019-03-05T08:42:15.704Z,73.45
2019-03-05T08:44:50.481Z,72.54
2019-03-05T08:47:21.338Z,71.83
2019-03-05T08:49:49.334Z,71.32
2019-03-05T08:52:17.538Z,70.53
2019-03-05T08:54:46.180Z,70.81
2019-03-05T08:57:14.788Z,71.49
2019-03-05T08:59:43.073Z,74.17
2019-03-05T09:02:11.759Z,73.35
2019-03-05T09:04:40.397Z,72.23
2019-03-05T09:07:08.721Z,70.91
2019-03-05T09:09:37.337Z,69.70
2019-03-05T09:12:04.544Z,68.57
2019-03-05T09:14:34.456Z,66.67
2019-03-05T09:17:10.153Z,66.15
2019-03-05T09:19:38.831Z,65.96
2019-03-05T09:22:07.198Z,65.10
2019-03-05T09:24:35.613Z,63.57
2019-03-05T09:27:03.838Z,63.01
2019-03-05T09:29:32.176Z,63.85
2019-03-05T09:32:00.495Z,62.33
2019-03-05T09:34:28.726Z,61.44
2019-03-05T09:36:57.359Z,59.64
2019-03-05T09:39:25.698Z,56.99
2019-03-05T09:41:53.877Z,57.40
2019-03-05T09:44:22.531Z,57.40
2019-03-05T09:46:51.197Z,56.08
2019-03-05T09:49:19.454Z,56.43
2019-03-05T09:51:47.334Z,54.54
2019-03-05T09:54:15.916Z,53.60
2019-03-05T09:56:44.594Z,54.39
2019-03-05T09:59:12.778Z,56.07
2019-03-05T10:01:41.578Z,54.36
2019-03-05T10:04:09.787Z,54.95
2019-03-05T10:06:38.148Z,54.66
2019-03-05T10:09:07.199Z,54.85
2019-03-05T10:11:35.118Z,54.27
2019-03-05T10:14:03.449Z,53.11
2019-03-05T10:16:31.991Z,53.82
2019-03-05T10:19:00.277Z,54.75
2019-03-05T10:21:28.249Z,51.72
2019-03-05T10:23:56.541Z,52.52
2019-03-05T10:26:25.123Z,52.37
2019-03-05T10:28:54.075Z,51.96
2019-03-05T10:31:22.330Z,49.25
2019-03-05T10:33:50.627Z,49.44
2019-03-05T10:36:19.379Z,50.20
2019-03-05T10:38:56.921Z,51.10
2019-03-05T10:41:18.703Z,50.62
2019-03-05T10:43:46.983Z,50.03
2019-03-05T10:46:15.361Z,49.19
2019-03-05T10:48:43.807Z,50.82
2019-03-05T10:51:12.438Z,50.86
2019-03-05T10:53:41.121Z,51.82
2019-03-05T10:56:09.823Z,53.02
2019-03-05T10:58:37.905Z,53.31
2019-03-05T11:04:26.335Z,53.71
2019-03-05T11:06:54.938Z,52.73
2019-03-05T11:09:23.835Z,53.42
2019-03-05T11:11:51.768Z,53.52
2019-03-05T11:14:20.100Z,54.82
2019-03-05T11:16:49.979Z,53.52
2019-03-05T11:19:18.479Z,53.51
2019-03-05T11:21:46.395Z,53.92
2019-03-05T11:24:15.157Z,53.65
2019-03-05T11:26:43.532Z,53.56
2019-03-05T11:29:12.120Z,53.08
2019-03-05T11:31:40.624Z,54.16
2019-03-05T11:34:09.091Z,53.61
2019-03-05T11:36:37.275Z,54.93
2019-03-05T11:42:07.534Z,57.02
2019-03-05T11:44:35.805Z,58.98
2019-03-05T11:47:04.415Z,59.87
2019-03-05T11:49:32.363Z,61.05
2019-03-05T11:52:00.649Z,61.25
2019-03-05T11:54:29.193Z,60.09
2019-03-05T11:56:57.508Z,61.19
2019-03-05T11:59:29.059Z,58.83
2019-03-05T12:01:57.775Z,58.80
2019-03-05T12:04:25.080Z,58.30
2019-03-05T12:06:53.293Z,58.97
2019-03-05T12:09:21.698Z,59.30
2019-03-05T12:11:49.673Z,60.92
2019-03-05T12:14:18.346Z,61.16
2019-03-05T12:16:46.664Z,61.47
2019-03-05T12:19:14.841Z,60.87
2019-03-05T12:21:43.327Z,62.02
2019-03-05T12:24:10.529Z,62.41
2019-03-05T12:26:39.250Z,62.29
2019-03-05T12:29:07.446Z,62.98
2019-03-05T12:31:35.743Z,62.09
2019-03-05T12:34:03.995Z,61.94
2019-03-05T12:36:32.766Z,62.12
2019-03-05T12:39:00.965Z,61.29
2019-03-05T12:41:29.546Z,61.27
2019-03-05T12:43:58.169Z,59.75
2019-03-05T12:46:26.639Z,60.48
2019-03-05T12:48:54.786Z,60.34
2019-03-05T12:51:23.130Z,59.72
2019-03-05T12:53:51.894Z,60.11
2019-03-05T12:56:23.794Z,57.53
2019-03-05T12:58:56.949Z,58.35
2019-03-05T13:01:25.653Z,58.70
2019-03-05T13:03:54.356Z,59.32
2019-03-05T13:06:21.985Z,59.08
2019-03-05T13:09:56.915Z,58.64
2019-03-05T13:12:32.171Z,58.40
2019-03-05T13:15:09.469Z,58.48
2019-03-05T13:17:37.823Z,57.79
2019-03-05T13:20:08.011Z,56.98
2019-03-05T13:22:37.318Z,57.09
2019-03-05T13:25:06.235Z,57.34
2019-03-05T13:27:34.194Z,56.74
2019-03-05T13:30:02.217Z,57.50
2019-03-05T13:32:30.226Z,57.81
2019-03-05T13:34:58.649Z,58.06
2019-03-05T13:37:28.569Z,58.29
2019-03-05T13:40:08.077Z,57.95
2019-03-05T13:42:36.745Z,58.57
2019-03-05T13:45:49.431Z,59.82
2019-03-05T13:48:58.719Z,59.74
2019-03-05T13:52:00.703Z,60.54
2019-03-05T13:55:14.298Z,61.01
2019-03-05T13:58:08.793Z,61.77
2019-03-05T14:00:36.879Z,62.23
2019-03-05T14:03:08.561Z,62.90
2019-03-05T14:06:15.273Z,62.53
2019-03-05T14:09:21.937Z,62.97
2019-03-05T14:11:51.639Z,64.87
2019-03-05T14:14:38.928Z,66.07
2019-03-05T14:17:26.690Z,66.73
2019-03-05T14:20:31.881Z,69.91
2019-03-05T14:22:58.162Z,72.06
2019-03-05T14:25:26.834Z,74.24
2019-03-05T14:27:55.566Z,75.45
2019-03-05T14:30:24.008Z,76.43
2019-03-05T14:32:52.405Z,75.92
2019-03-05T14:35:22.675Z,76.73
2019-03-05T14:37:51.166Z,77.34
2019-03-05T14:43:44.552Z,76.86
2019-03-05T14:46:12.966Z,76.07
2019-03-05T14:48:41.567Z,75.92
2019-03-05T14:51:10.321Z,75.49
2019-03-05T14:53:38.204Z,75.35
2019-03-05T14:56:06.642Z,74.27
2019-03-05T14:58:34.596Z,74.34
2019-03-05T15:01:03.289Z,74.18
2019-03-05T15:03:31.542Z,75.36
2019-03-05T15:05:59.528Z,74.14
2019-03-05T15:11:29.119Z,73.69
2019-03-05T15:13:57.735Z,74.18
2019-03-05T15:16:26.037Z,73.91
2019-03-05T15:18:53.539Z,73.37
2019-03-05T15:21:21.792Z,72.68
2019-03-05T15:23:50.059Z,72.46
2019-03-05T15:26:18.386Z,72.97
2019-03-05T15:28:55.834Z,73.05
2019-03-05T15:31:24.197Z,72.91
2019-03-05T15:33:52.817Z,73.11
2019-03-05T15:36:40.090Z,72.05
2019-03-05T15:39:08.402Z,73.04
2019-03-05T15:41:36.804Z,72.96
2019-03-05T15:44:04.522Z,74.16
2019-03-05T15:46:32.569Z,75.33
2019-03-05T15:49:01.211Z,76.14
2019-03-05T15:51:29.614Z,76.86
2019-03-05T15:53:57.662Z,77.39
2019-03-05T15:56:25.956Z,77.80
2019-03-05T15:58:54.365Z,78.16
2019-03-05T16:01:22.879Z,78.25
2019-03-05T16:03:51.219Z,78.94
2019-03-05T16:06:19.161Z,79.34
2019-03-05T16:08:47.092Z,78.45
2019-03-05T16:11:15.944Z,78.89
2019-03-05T16:13:44.228Z,79.07
2019-03-05T16:16:12.534Z,80.44
2019-03-05T16:18:41.408Z,80.81
2019-03-05T16:21:09.686Z,80.70
2019-03-05T16:23:38.165Z,81.96
2019-03-05T16:26:06.094Z,81.07
2019-03-05T16:28:33.897Z,82.43
2019-03-05T16:31:21.968Z,82.59
2019-03-05T16:34:13.077Z,83.04
2019-03-05T16:37:07.046Z,84.51
2019-03-05T16:40:05.235Z,84.75
2019-03-05T16:42:47.681Z,85.41
2019-03-05T16:45:55.920Z,86.51
2019-03-05T16:48:43.736Z,87.04
2019-03-05T16:51:42.897Z,88.09
2019-03-05T16:57:31.962Z,88.78
2019-03-05T17:00:11.245Z,88.93
2019-03-05T17:06:11.440Z,90.12
2019-03-05T17:11:50.666Z,90.68
2019-03-05T17:14:19.354Z,90.77
2019-03-05T17:20:09.403Z,90.85
2019-03-05T17:22:38.015Z,90.93
2019-03-05T17:25:47.386Z,90.93
2019-03-05T17:28:15.701Z,90.75
2019-03-05T17:30:43.882Z,90.59
2019-03-05T17:33:24.427Z,90.83
2019-03-05T17:36:04.459Z,91.01
2019-03-05T17:47:37.002Z,91.37
2019-03-05T17:50:45.939Z,91.37
2019-03-05T17:53:14.166Z,91.24
2019-03-05T18:01:55.158Z,92.47
2019-03-05T18:04:54.644Z,92.76
2019-03-05T18:13:45.461Z,92.96
2019-03-05T18:16:13.345Z,93.13
2019-03-05T18:28:16.928Z,92.86
2019-03-05T18:31:04.546Z,92.61
2019-03-05T18:36:34.717Z,92.66
2019-03-05T18:42:23.946Z,92.65
2019-03-05T18:45:32.520Z,92.56
2019-03-05T18:57:26.178Z,92.92
2019-03-05T19:00:06.160Z,93.27
2019-03-05T19:17:52.486Z,93.73
2019-03-05T19:20:40.118Z,93.53
2019-03-05T19:26:11.892Z,94.55
2019-03-05T19:28:40.705Z,95.63
2019-03-05T19:31:49.390Z,96.30
2019-03-05T19:34:48.370Z,96.55
2019-03-05T19:40:27.512Z,96.71
2019-03-05T19:42:55.895Z,96.94
2019-03-05T19:45:24.158Z,96.84
2019-03-05T19:48:23.849Z,96.73
2019-03-05T19:51:03.886Z,96.59
2019-03-05T19:56:44.347Z,96.62
2019-03-05T19:59:13.116Z,96.44
2019-03-05T20:02:21.901Z,96.17
2019-03-05T20:10:30.643Z,96.30
2019-03-05T20:12:58.936Z,96.35
2019-03-05T20:19:08.430Z,96.11
2019-03-05T20:22:07.810Z,96.39
2019-03-05T20:24:36.094Z,96.44
2019-03-05T20:30:28.593Z,96.86
2019-03-05T20:35:58.031Z,96.71
2019-03-05T20:38:26.349Z,96.52
2019-03-05T20:41:25.485Z,96.56
2019-03-05T20:50:16.476Z,96.28
2019-03-05T20:52:45.015Z,95.57
2019-03-05T21:01:24.600Z,95.69
2019-03-05T21:04:35.406Z,96.08
2019-03-05T21:07:21.221Z,96.20
2019-03-05T21:10:08.543Z,96.07
2019-03-05T21:12:36.507Z,96.27
2019-03-05T21:15:05.417Z,96.38
2019-03-05T21:18:14.094Z,96.45
2019-03-05T21:21:01.434Z,96.53
2019-03-05T21:23:29.805Z,96.34
2019-03-05T21:25:58.000Z,95.77
2019-03-05T21:29:06.587Z,95.47
2019-03-05T21:35:07.050Z,95.03
2019-03-05T21:40:33.784Z,95.71
2019-03-05T21:46:45.981Z,96.05
2019-03-05T21:49:25.711Z,95.93
2019-03-05T21:55:15.162Z,95.62
2019-03-05T22:01:23.120Z,95.27
2019-03-05T22:10:06.681Z,94.80
2019-03-05T22:16:06.984Z,94.25
2019-03-05T22:18:35.640Z,94.37
2019-03-05T22:21:03.990Z,94.68
2019-03-05T22:27:04.296Z,95.21
2019-03-05T22:32:33.018Z,95.91
2019-03-05T22:44:52.027Z,95.35
2019-03-05T22:47:20.785Z,95.34
2019-03-05T22:49:49.201Z,95.47
2019-03-05T22:52:17.786Z,95.48
2019-03-05T22:55:26.428Z,95.54
2019-03-05T23:01:41.828Z,95.42
2019-03-05T23:11:10.104Z,96.08
2019-03-05T23:14:18.952Z,96.28
2019-03-05T23:20:20.882Z,96.55
2019-03-05T23:23:47.297Z,96.46
2019-03-05T23:26:55.946Z,96.31
2019-03-05T23:30:02.503Z,96.26
2019-03-05T23:33:11.318Z,96.23
2019-03-05T23:38:52.110Z,96.30
2019-03-05T23:41:20.862Z,96.31
2019-03-05T23:43:49.039Z,96.37
2019-03-05T23:49:37.667Z,96.61
2019-03-05T23:52:46.604Z,96.54
